Time;durP1;ratioP1;P1;durP2;ratioP2;P2;SDS_P1;SDS_P2;PMS_P1;PMS_P2;Temp;Humidity;BMP_temperature;BMP_pressure;BME280_temperature;BME280_humidity;BME280_pressure;Samples;Min_cycle;Max_cycle;Signal;HPM_P1;HPM_P2
2021/10/02 00:01:47;;;;;;;0.50;0.50;;;11.20;99.90;;;;;;4398440;32;20074;-66
2021/10/02 00:33:57;;;;;;;0.40;0.40;;;11.20;99.90;;;;;;4401202;32;20124;-66
2021/10/02 00:41:48;;;;;;;0.30;0.30;;;11.10;99.90;;;;;;4400579;32;20081;-66
2021/10/02 00:44:47;;;;;;;1.35;0.73;;;11.10;99.90;;;;;;4413084;32;20552;-66
2021/10/02 00:46:59;;;;;;;0.80;0.60;;;11.00;99.90;;;;;;4400707;32;20083;-66
2021/10/02 00:49:25;;;;;;;0.40;0.40;;;10.90;99.90;;;;;;4413035;32;20066;-66
2021/10/02 00:51:51;;;;;;;0.40;0.40;;;10.90;99.90;;;;;;4411811;32;20062;-66
2021/10/02 00:54:17;;;;;;;0.40;0.40;;;10.80;99.90;;;;;;4413540;32;20078;-66
2021/10/02 00:56:42;;;;;;;1.50;0.70;;;10.80;99.90;;;;;;4413236;32;20478;-66
2021/10/02 00:59:08;;;;;;;0.40;0.40;;;10.80;99.90;;;;;;4412275;32;20131;-66
2021/10/02 01:01:51;;;;;;;0.50;0.50;;;10.80;99.90;;;;;;4413611;32;20058;-66
2021/10/02 01:04:28;;;;;;;0.93;0.85;;;10.70;99.90;;;;;;4398921;32;20514;-66
2021/10/02 01:07:22;;;;;;;0.40;0.40;;;10.70;99.90;;;;;;4412776;32;20077;-66
2021/10/02 01:10:11;;;;;;;0.65;0.50;;;10.60;99.90;;;;;;4400415;32;20132;-66
2021/10/02 01:12:52;;;;;;;0.55;0.55;;;10.70;99.90;;;;;;4412061;32;20087;-66
2021/10/02 01:15:33;;;;;;;0.52;0.52;;;10.70;99.90;;;;;;4411900;32;20487;-66
2021/10/02 01:18:03;;;;;;;0.30;0.30;;;10.70;99.90;;;;;;4413188;32;20150;-66
2021/10/02 01:20:55;;;;;;;5.05;1.00;;;10.60;99.90;;;;;;4413238;32;20513;-66
2021/10/02 01:23:40;;;;;;;;;;;10.50;99.90;;;;;;4413711;32;20058;-66
2021/10/02 01:26:19;;;;;;;0.68;0.52;;;10.40;99.90;;;;;;4400921;32;19949;-66
2021/10/02 01:28:52;;;;;;;0.50;0.50;;;10.40;99.90;;;;;;4411718;32;20109;-66
2021/10/02 01:31:20;;;;;;;0.60;0.45;;;10.40;99.90;;;;;;4412121;32;20065;-66
2021/10/02 01:37:02;;;;;;;0.32;0.32;;;10.40;99.90;;;;;;4412454;32;20109;-66
2021/10/02 01:47:23;;;;;;;0.20;0.20;;;10.30;99.90;;;;;;4390079;32;20070;-66
2021/10/02 01:47:40;;;;;;;0.65;0.65;;;10.30;99.90;;;;;;4399526;32;20070;-66
2021/10/02 01:50:07;;;;;;;2.17;1.30;;;10.50;99.90;;;;;;4397311;32;20207;-66
2021/10/02 01:52:40;;;;;;;0.40;0.40;;;10.50;99.90;;;;;;4412007;32;20500;-66
2021/10/02 01:55:10;;;;;;;0.40;0.40;;;10.40;99.90;;;;;;4401485;32;20144;-66
2021/10/02 01:57:41;;;;;;;0.80;0.43;;;10.40;99.90;;;;;;4411475;32;20168;-66
2021/10/02 02:00:09;;;;;;;0.30;0.30;;;10.50;99.90;;;;;;4411645;32;20102;-66
2021/10/02 02:02:36;;;;;;;0.55;0.55;;;10.50;99.90;;;;;;4411373;32;20061;-66
2021/10/02 02:05:06;;;;;;;0.57;0.50;;;10.40;99.90;;;;;;4410900;32;20424;-66
2021/10/02 02:07:34;;;;;;;1.95;0.60;;;10.40;99.90;;;;;;4411201;32;20475;-66
2021/10/02 02:10:01;;;;;;;0.75;0.43;;;10.40;99.90;;;;;;4412710;32;20090;-66
2021/10/02 02:12:32;;;;;;;0.37;0.37;;;10.40;99.90;;;;;;4411859;32;20069;-66
2021/10/02 02:15:01;;;;;;;0.50;0.50;;;10.40;99.90;;;;;;4412228;32;20061;-66
2021/10/02 02:17:28;;;;;;;0.40;0.40;;;10.40;99.90;;;;;;4411947;32;20078;-66
2021/10/02 02:19:56;;;;;;;12.30;2.45;;;10.40;99.90;;;;;;4409032;32;20220;-66
2021/10/02 02:22:23;;;;;;;1.60;1.17;;;10.40;99.90;;;;;;4412244;32;20193;-66
2021/10/02 02:24:48;;;;;;;1.95;1.00;;;10.50;99.90;;;;;;4410591;32;20057;-66
2021/10/02 02:27:14;;;;;;;1.00;0.80;;;10.40;99.90;;;;;;4411951;32;20577;-66
2021/10/02 02:29:39;;;;;;;0.68;0.68;;;10.50;99.90;;;;;;4412096;32;20082;-66
2021/10/02 02:32:05;;;;;;;0.47;0.47;;;10.50;99.90;;;;;;4410997;32;20090;-66
2021/10/02 02:34:31;;;;;;;0.40;0.40;;;10.50;99.90;;;;;;4412437;32;20108;-66
2021/10/02 02:36:58;;;;;;;1.58;0.52;;;10.50;99.90;;;;;;4411994;32;20237;-66
2021/10/02 02:39:25;;;;;;;0.30;0.30;;;10.50;99.90;;;;;;4410528;32;20078;-66
2021/10/02 02:41:50;;;;;;;1.77;0.85;;;10.50;99.90;;;;;;4410219;32;20057;-66
2021/10/02 02:44:16;;;;;;;0.90;0.50;;;10.40;99.90;;;;;;4410773;32;20081;-66
2021/10/02 02:46:43;;;;;;;0.32;0.32;;;10.40;99.90;;;;;;4410919;32;20062;-66
2021/10/02 02:49:17;;;;;;;0.45;0.45;;;10.40;99.90;;;;;;4409360;32;20073;-66
2021/10/02 02:52:06;;;;;;;0.40;0.40;;;10.40;99.90;;;;;;4412400;32;20197;-66
2021/10/02 02:54:40;;;;;;;0.50;0.50;;;10.60;99.90;;;;;;4399930;32;20129;-66
2021/10/02 02:57:12;;;;;;;0.80;0.68;;;10.70;99.90;;;;;;4411535;32;20116;-66
2021/10/02 02:59:44;;;;;;;0.50;0.50;;;10.60;99.90;;;;;;4397785;32;20082;-66
2021/10/02 03:02:16;;;;;;;1.20;0.45;;;10.60;99.90;;;;;;4410153;32;20139;-66
2021/10/02 03:04:43;;;;;;;0.52;0.52;;;10.70;99.90;;;;;;4411473;32;20069;-66
2021/10/02 03:07:11;;;;;;;0.55;0.55;;;10.70;99.90;;;;;;4397411;32;20079;-66
2021/10/02 03:09:42;;;;;;;1.30;0.50;;;10.60;99.90;;;;;;4411427;32;20073;-66
2021/10/02 03:12:10;;;;;;;0.40;0.40;;;10.60;99.90;;;;;;4411193;32;20463;-66
2021/10/02 03:14:37;;;;;;;3.50;1.37;;;10.60;99.90;;;;;;4411403;32;20510;-66
2021/10/02 03:17:05;;;;;;;0.45;0.45;;;10.70;99.90;;;;;;4411505;32;20058;-66
2021/10/02 03:19:31;;;;;;;5.82;2.55;;;10.70;99.90;;;;;;4411810;32;20518;-66
2021/10/02 03:21:57;;;;;;;1.15;0.80;;;10.80;99.90;;;;;;4410864;32;20066;-66
2021/10/02 03:24:24;;;;;;;0.55;0.55;;;10.80;99.90;;;;;;4411370;32;20077;-66
2021/10/02 03:26:51;;;;;;;0.40;0.40;;;10.80;99.90;;;;;;4411502;32;20081;-66
2021/10/02 03:29:18;;;;;;;0.50;0.50;;;10.80;99.90;;;;;;4384779;32;20066;-66
2021/10/02 03:31:44;;;;;;;0.73;0.57;;;10.80;99.90;;;;;;4411769;32;20129;-66
2021/10/02 03:34:11;;;;;;;0.55;0.55;;;10.70;99.90;;;;;;4412136;32;20070;-66
2021/10/02 03:36:36;;;;;;;0.40;0.40;;;10.70;99.90;;;;;;4412393;32;20094;-66
2021/10/02 03:39:02;;;;;;;0.30;0.30;;;10.80;99.90;;;;;;4414053;32;20090;-66
2021/10/02 03:41:27;;;;;;;0.77;0.70;;;10.80;99.90;;;;;;4413545;32;20062;-66
2021/10/02 03:43:53;;;;;;;1.40;0.60;;;10.80;99.90;;;;;;4414016;32;20185;-66
2021/10/02 03:46:19;;;;;;;0.77;0.70;;;10.90;99.90;;;;;;4414351;32;20428;-66
2021/10/02 03:48:44;;;;;;;0.50;0.50;;;11.00;99.90;;;;;;4413690;32;20511;-66
2021/10/02 03:51:10;;;;;;;0.40;0.40;;;11.00;99.90;;;;;;4414082;32;20128;-66
2021/10/02 03:53:35;;;;;;;0.50;0.50;;;11.00;99.90;;;;;;4413793;32;20078;-66
2021/10/02 03:56:01;;;;;;;1.80;1.12;;;11.00;99.90;;;;;;4412055;32;20401;-66
2021/10/02 03:58:28;;;;;;;0.73;0.65;;;10.90;99.90;;;;;;4413689;32;20117;-66
2021/10/02 04:00:53;;;;;;;1.20;0.60;;;10.90;99.90;;;;;;4413775;32;20554;-66
2021/10/02 04:03:19;;;;;;;0.35;0.35;;;11.00;99.90;;;;;;4413992;32;20061;-66
2021/10/02 04:05:44;;;;;;;0.50;0.50;;;11.00;99.90;;;;;;4413278;32;20113;-66
2021/10/02 04:08:09;;;;;;;0.30;0.30;;;11.00;99.90;;;;;;4413932;32;20074;-66
2021/10/02 04:10:35;;;;;;;1.35;0.73;;;10.90;99.90;;;;;;4413461;32;20429;-66
2021/10/02 04:13:01;;;;;;;0.40;0.40;;;10.90;99.90;;;;;;4413381;32;20070;-66
2021/10/02 04:15:26;;;;;;;0.47;0.47;;;10.90;99.90;;;;;;4399646;32;20307;-66
2021/10/02 04:17:53;;;;;;;0.50;0.50;;;10.90;99.90;;;;;;4413813;32;20123;-66
2021/10/02 04:20:18;;;;;;;0.35;0.35;;;10.90;99.90;;;;;;4412519;32;20062;-66
2021/10/02 04:22:44;;;;;;;0.40;0.40;;;10.90;99.90;;;;;;4398971;32;20540;-66
2021/10/02 04:25:09;;;;;;;0.65;0.57;;;10.90;99.90;;;;;;4411492;32;20456;-66
2021/10/02 04:27:35;;;;;;;0.40;0.40;;;10.90;99.90;;;;;;4413951;32;20142;-66
2021/10/02 04:30:00;;;;;;;1.20;0.60;;;10.90;99.90;;;;;;4399314;32;20390;-66
2021/10/02 04:32:26;;;;;;;1.55;0.73;;;10.90;99.90;;;;;;4413677;32;20521;-66
2021/10/02 04:34:51;;;;;;;0.50;0.50;;;10.90;99.90;;;;;;4413811;32;20108;-66
2021/10/02 04:37:17;;;;;;;0.73;0.68;;;10.80;99.90;;;;;;4399676;32;20058;-66
2021/10/02 04:39:43;;;;;;;15.50;0.70;;;10.80;99.90;;;;;;4413346;32;20622;-66
2021/10/02 04:42:08;;;;;;;0.30;0.30;;;10.80;99.90;;;;;;4412728;32;20057;-66
2021/10/02 04:44:34;;;;;;;0.77;0.77;;;10.80;99.90;;;;;;4413345;32;20357;-66
2021/10/02 04:46:59;;;;;;;0.50;0.50;;;11.00;99.90;;;;;;4411308;32;20070;-66
2021/10/02 04:49:25;;;;;;;0.45;0.45;;;11.00;99.90;;;;;;4413055;32;20062;-66
2021/10/02 04:51:50;;;;;;;0.52;0.52;;;11.00;99.90;;;;;;4412562;32;20082;-66
2021/10/02 04:54:17;;;;;;;0.40;0.40;;;11.10;99.90;;;;;;4412340;32;20073;-66
2021/10/02 04:56:42;;;;;;;0.50;0.50;;;11.20;99.90;;;;;;4413407;32;20543;-66
2021/10/02 04:59:08;;;;;;;0.50;0.50;;;11.20;99.90;;;;;;4412568;32;20070;-66
2021/10/02 05:01:34;;;;;;;0.50;0.50;;;11.40;99.90;;;;;;4411992;32;20400;-66
2021/10/02 05:04:01;;;;;;;0.30;0.30;;;11.30;99.90;;;;;;4413722;32;20057;-66
2021/10/02 05:06:27;;;;;;;0.30;0.30;;;11.20;99.90;;;;;;4412190;32;20539;-66
2021/10/02 05:08:53;;;;;;;0.50;0.50;;;11.30;99.90;;;;;;4412823;32;20127;-66
2021/10/02 05:11:18;;;;;;;0.40;0.40;;;11.10;99.90;;;;;;4411974;32;20412;-66
2021/10/02 05:13:44;;;;;;;0.40;0.40;;;11.00;99.90;;;;;;4413456;32;20502;-66
2021/10/02 05:16:10;;;;;;;0.35;0.35;;;11.00;99.90;;;;;;4412638;32;20082;-66
2021/10/02 05:18:35;;;;;;;0.88;0.65;;;11.00;99.90;;;;;;4412149;32;20065;-66
2021/10/02 05:21:01;;;;;;;0.50;0.50;;;11.00;99.90;;;;;;4411545;32;20117;-65
2021/10/02 05:23:26;;;;;;;0.30;0.30;;;11.00;99.90;;;;;;4412337;32;20061;-65
2021/10/02 05:25:54;;;;;;;0.47;0.47;;;11.00;99.90;;;;;;4412650;32;20519;-65
2021/10/02 05:28:20;;;;;;;0.47;0.47;;;11.00;99.90;;;;;;4413254;32;20082;-65
2021/10/02 05:30:46;;;;;;;0.85;0.62;;;11.00;99.90;;;;;;4398291;32;20186;-65
2021/10/02 05:33:11;;;;;;;0.70;0.60;;;11.00;99.90;;;;;;4411591;32;20080;-66
2021/10/02 05:35:37;;;;;;;0.60;0.60;;;11.00;99.90;;;;;;4411893;32;20066;-67
2021/10/02 05:38:02;;;;;;;0.50;0.50;;;11.10;99.90;;;;;;4412454;32;20160;-66
2021/10/02 05:40:29;;;;;;;0.40;0.40;;;11.10;99.90;;;;;;4412531;32;20522;-66
2021/10/02 05:42:54;;;;;;;0.25;0.25;;;11.10;99.90;;;;;;4413658;32;20070;-66
2021/10/02 05:45:20;;;;;;;0.50;0.50;;;11.10;99.90;;;;;;4411924;32;20112;-66
2021/10/02 05:47:45;;;;;;;0.50;0.50;;;11.10;99.90;;;;;;4412579;32;20425;-66
2021/10/02 05:50:11;;;;;;;0.43;0.43;;;11.10;99.90;;;;;;4411286;32;20090;-66
2021/10/02 05:52:36;;;;;;;0.30;0.30;;;11.10;99.90;;;;;;4412496;32;20061;-66
2021/10/02 05:55:03;;;;;;;4.10;0.60;;;11.20;99.90;;;;;;4412453;32;20438;-66
2021/10/02 05:57:28;;;;;;;2.15;0.50;;;11.30;99.90;;;;;;4397929;32;20066;-66
2021/10/02 05:59:54;;;;;;;0.57;0.57;;;11.40;99.90;;;;;;4411662;32;20081;-66
2021/10/02 06:02:19;;;;;;;0.73;0.73;;;11.40;99.90;;;;;;4410799;32;20077;-66
2021/10/02 06:04:45;;;;;;;0.40;0.40;;;11.30;99.90;;;;;;4411121;32;20120;-66
2021/10/02 06:07:10;;;;;;;0.93;0.35;;;11.30;99.90;;;;;;4411749;32;20370;-66
2021/10/02 06:09:36;;;;;;;0.45;0.45;;;11.40;99.90;;;;;;4411972;32;20061;-66
2021/10/02 06:12:02;;;;;;;0.50;0.50;;;11.60;99.90;;;;;;4410700;32;20654;-66
2021/10/02 06:14:27;;;;;;;1.17;0.35;;;11.60;99.90;;;;;;4412225;32;20082;-66
2021/10/02 06:16:53;;;;;;;0.47;0.47;;;11.70;99.90;;;;;;4412180;32;20066;-66
2021/10/02 06:19:19;;;;;;;0.43;0.43;;;11.70;99.90;;;;;;4397853;32;20108;-66
2021/10/02 06:21:45;;;;;;;1.55;0.52;;;11.50;99.90;;;;;;4397805;32;20081;-66
2021/10/02 06:24:11;;;;;;;0.50;0.50;;;11.40;99.90;;;;;;4409100;32;80595;-66
2021/10/02 06:26:38;;;;;;;0.30;0.30;;;11.30;99.90;;;;;;4411286;32;20125;-66
2021/10/02 06:29:05;;;;;;;0.40;0.40;;;11.30;99.90;;;;;;4411978;32;20073;-66
2021/10/02 06:31:30;;;;;;;2.10;0.95;;;11.40;99.90;;;;;;4412486;32;20122;-67
2021/10/02 06:33:56;;;;;;;0.50;0.50;;;11.50;99.90;;;;;;4411734;32;20086;-66
2021/10/02 06:36:21;;;;;;;0.85;0.60;;;11.60;99.90;;;;;;4412053;32;20518;-67
2021/10/02 06:38:47;;;;;;;0.50;0.50;;;11.60;99.90;;;;;;4411497;32;20073;-67
2021/10/02 06:41:13;;;;;;;7.22;1.45;;;11.50;99.90;;;;;;4412194;32;20475;-66
2021/10/02 06:43:38;;;;;;;3.75;0.73;;;11.60;99.90;;;;;;4411662;32;20120;-66
2021/10/02 06:46:04;;;;;;;0.37;0.37;;;11.50;99.90;;;;;;4412404;32;20471;-67
2021/10/02 06:48:29;;;;;;;0.80;0.68;;;11.50;99.90;;;;;;4412124;32;20121;-67
2021/10/02 06:50:55;;;;;;;1.12;0.82;;;11.40;99.90;;;;;;4412224;32;20230;-67
2021/10/02 06:53:20;;;;;;;0.40;0.40;;;11.50;99.90;;;;;;4410911;32;20082;-67
2021/10/02 06:55:46;;;;;;;0.52;0.52;;;11.50;99.90;;;;;;4411798;32;20141;-67
2021/10/02 06:58:12;;;;;;;0.70;0.70;;;11.60;99.90;;;;;;4410791;32;20065;-67
2021/10/02 07:00:38;;;;;;;0.40;0.40;;;11.70;99.90;;;;;;4397836;32;20073;-67
2021/10/02 07:03:04;;;;;;;0.32;0.32;;;11.70;99.90;;;;;;4398086;32;20069;-66
2021/10/02 07:05:30;;;;;;;0.50;0.50;;;11.70;99.90;;;;;;4411040;32;20432;-66
2021/10/02 07:07:56;;;;;;;0.62;0.62;;;11.70;99.90;;;;;;4410947;32;20070;-66
2021/10/02 07:10:22;;;;;;;1.40;0.70;;;11.80;99.90;;;;;;4397760;32;20110;-67
2021/10/02 07:12:49;;;;;;;1.10;0.57;;;11.80;99.90;;;;;;4413591;32;20499;-66
2021/10/02 07:15:15;;;;;;;0.40;0.40;;;12.00;99.90;;;;;;4413208;32;20073;-66
2021/10/02 07:17:41;;;;;;;0.52;0.45;;;12.00;99.90;;;;;;4413614;32;20128;-67
2021/10/02 07:20:07;;;;;;;0.82;0.45;;;12.20;99.90;;;;;;4414470;32;20065;-67
2021/10/02 07:22:37;;;;;;;0.65;0.65;;;12.20;99.90;;;;;;4413571;32;20066;-67
2021/10/02 07:25:05;;;;;;;0.40;0.40;;;12.30;99.90;;;;;;4414564;32;20090;-67
2021/10/02 07:27:30;;;;;;;0.40;0.40;;;12.30;99.90;;;;;;4398825;32;20074;-67
2021/10/02 07:29:56;;;;;;;0.40;0.40;;;12.40;99.90;;;;;;4412863;32;20259;-67
2021/10/02 07:32:23;;;;;;;0.50;0.50;;;12.40;99.90;;;;;;4388305;32;20066;-67
2021/10/02 07:34:50;;;;;;;0.30;0.30;;;12.50;99.90;;;;;;4401387;32;20066;-67
2021/10/02 07:37:15;;;;;;;0.85;0.30;;;12.40;99.90;;;;;;4399990;32;20066;-66
2021/10/02 07:39:41;;;;;;;0.30;0.30;;;12.40;99.90;;;;;;4414123;32;20186;-67
2021/10/02 07:42:07;;;;;;;0.30;0.30;;;12.50;99.90;;;;;;4413751;32;20078;-66
2021/10/02 07:44:35;;;;;;;0.43;0.43;;;12.50;99.90;;;;;;4413593;32;20073;-66
2021/10/02 07:47:02;;;;;;;0.32;0.32;;;12.60;99.90;;;;;;4413310;32;20078;-66
2021/10/02 07:49:33;;;;;;;0.70;0.70;;;12.60;99.90;;;;;;4399934;32;20062;-66
2021/10/02 07:51:58;;;;;;;0.55;0.55;;;12.70;99.90;;;;;;4413094;32;20078;-66
2021/10/02 07:54:26;;;;;;;1.83;0.95;;;12.80;99.90;;;;;;4413294;32;20456;-66
2021/10/02 07:56:52;;;;;;;0.85;0.50;;;12.90;99.90;;;;;;4413704;32;20092;-66
2021/10/02 07:59:19;;;;;;;0.57;0.57;;;12.90;99.90;;;;;;4400211;32;20070;-67
2021/10/02 08:01:45;;;;;;;0.40;0.40;;;12.90;99.90;;;;;;4414934;32;20065;-66
2021/10/02 08:04:10;;;;;;;0.50;0.50;;;12.90;99.90;;;;;;4414022;32;20569;-66
2021/10/02 08:06:37;;;;;;;0.73;0.60;;;13.00;99.90;;;;;;4399555;32;20085;-66
2021/10/02 08:09:04;;;;;;;0.32;0.32;;;13.10;99.90;;;;;;4413662;32;20399;-67
2021/10/02 08:11:30;;;;;;;0.50;0.50;;;13.20;99.90;;;;;;4412278;32;20069;-66
2021/10/02 08:13:56;;;;;;;0.43;0.43;;;13.20;99.90;;;;;;4399209;32;20078;-66
2021/10/02 08:16:27;;;;;;;0.40;0.40;;;13.30;99.90;;;;;;4413610;32;20066;-67
2021/10/02 08:18:56;;;;;;;2.53;1.12;;;13.40;99.90;;;;;;4399138;32;20090;-67
2021/10/02 08:21:22;;;;;;;3.53;1.92;;;13.60;99.90;;;;;;4413927;32;20058;-67
2021/10/02 08:23:48;;;;;;;0.60;0.60;;;13.60;99.90;;;;;;4412515;32;20069;-66
2021/10/02 08:26:16;;;;;;;0.57;0.57;;;13.60;99.90;;;;;;4399260;32;20074;-67
2021/10/02 08:28:51;;;;;;;0.35;0.35;;;13.70;99.90;;;;;;4412949;32;20089;-67
2021/10/02 08:31:20;;;;;;;0.50;0.50;;;13.70;99.90;;;;;;4399686;32;20426;-66
2021/10/02 08:33:46;;;;;;;1.00;0.80;;;13.80;99.90;;;;;;4412952;32;20125;-67
2021/10/02 08:36:12;;;;;;;0.40;0.40;;;13.80;99.90;;;;;;4412654;32;20066;-67
2021/10/02 08:38:38;;;;;;;0.50;0.50;;;13.90;99.90;;;;;;4413145;32;20116;-66
2021/10/02 08:41:05;;;;;;;1.27;0.47;;;14.00;99.90;;;;;;4413690;32;20069;-67
2021/10/02 08:43:33;;;;;;;2.25;0.55;;;14.10;99.90;;;;;;4413921;32;20427;-67
2021/10/02 08:46:01;;;;;;;0.73;0.70;;;14.10;99.90;;;;;;4399594;32;20054;-67
2021/10/02 08:48:27;;;;;;;0.62;0.62;;;14.10;99.90;;;;;;4413172;32;20131;-67
2021/10/02 08:50:56;;;;;;;0.30;0.30;;;14.30;99.90;;;;;;4414246;32;20065;-67
2021/10/02 08:53:25;;;;;;;0.30;0.30;;;14.40;99.90;;;;;;4399484;32;20165;-67
2021/10/02 08:55:51;;;;;;;0.45;0.43;;;14.50;99.90;;;;;;4412358;32;20112;-67
2021/10/02 08:58:17;;;;;;;0.40;0.40;;;14.60;99.90;;;;;;4399701;32;20085;-67
2021/10/02 09:00:44;;;;;;;0.40;0.40;;;14.70;99.90;;;;;;4399694;32;20065;-66
2021/10/02 09:03:10;;;;;;;0.30;0.30;;;14.80;99.90;;;;;;4398737;32;20498;-67
2021/10/02 09:05:36;;;;;;;0.35;0.35;;;14.90;99.90;;;;;;4399167;32;20065;-67
2021/10/02 09:08:03;;;;;;;0.40;0.40;;;15.00;99.90;;;;;;4413295;32;20466;-67
2021/10/02 09:10:31;;;;;;;0.30;0.30;;;15.00;99.90;;;;;;4399093;32;20061;-67
2021/10/02 09:12:57;;;;;;;0.60;0.60;;;15.20;99.90;;;;;;4412378;32;20066;-67
2021/10/02 09:15:22;;;;;;;0.77;0.77;;;15.30;99.90;;;;;;4412793;32;20078;-67
2021/10/02 09:17:48;;;;;;;0.75;0.73;;;15.50;99.90;;;;;;4412565;32;20129;-67
2021/10/02 09:20:15;;;;;;;0.30;0.30;;;15.50;99.90;;;;;;4398231;32;20078;-67
2021/10/02 09:22:53;;;;;;;0.75;0.52;;;15.60;99.90;;;;;;4412807;32;20788;-67
2021/10/02 09:25:19;;;;;;;0.75;0.62;;;15.80;99.90;;;;;;4411233;32;20090;-67
2021/10/02 09:27:44;;;;;;;0.50;0.50;;;15.90;99.90;;;;;;4411957;32;20094;-67
2021/10/02 09:30:13;;;;;;;0.40;0.40;;;16.00;99.90;;;;;;4412712;32;20125;-67
2021/10/02 09:32:41;;;;;;;0.85;0.57;;;16.10;99.90;;;;;;4398269;32;20054;-67
2021/10/02 09:35:10;;;;;;;0.40;0.40;;;16.20;99.90;;;;;;4385898;32;20073;-67
2021/10/02 09:37:39;;;;;;;3.50;0.50;;;16.30;99.90;;;;;;4412818;32;20090;-67
2021/10/02 09:40:13;;;;;;;0.60;0.60;;;16.50;99.90;;;;;;4411291;32;20065;-67
2021/10/02 09:42:42;;;;;;;0.47;0.47;;;16.50;99.90;;;;;;4412011;32;20514;-67
2021/10/02 09:45:11;;;;;;;1.27;0.75;;;16.60;99.90;;;;;;4398477;32;20125;-67
2021/10/02 09:47:38;;;;;;;0.50;0.50;;;16.70;99.90;;;;;;4411919;32;20551;-67
2021/10/02 09:50:21;;;;;;;1.35;0.60;;;16.80;99.90;;;;;;4413215;32;20064;-67
2021/10/02 09:52:50;;;;;;;0.30;0.30;;;16.90;99.90;;;;;;4387420;32;20089;-67
2021/10/02 09:55:27;;;;;;;0.40;0.40;;;16.90;99.90;;;;;;4401513;32;20074;-67
2021/10/02 09:57:55;;;;;;;0.80;0.80;;;16.80;99.90;;;;;;4411770;32;20094;-67
2021/10/02 10:00:31;;;;;;;0.32;0.32;;;16.90;99.90;;;;;;4409918;32;20416;-67
2021/10/02 10:02:58;;;;;;;0.30;0.30;;;17.00;99.90;;;;;;4410239;32;20113;-67
2021/10/02 10:05:32;;;;;;;0.65;0.65;;;17.10;99.90;;;;;;4397897;32;20082;-67
2021/10/02 10:08:00;;;;;;;1.10;0.60;;;17.10;99.90;;;;;;4412021;32;20065;-67
2021/10/02 10:10:28;;;;;;;0.40;0.40;;;17.10;99.90;;;;;;4412137;32;20065;-67
2021/10/02 10:12:54;;;;;;;5.45;1.42;;;17.20;99.90;;;;;;4410914;32;20061;-67
2021/10/02 10:15:30;;;;;;;1.90;0.77;;;17.20;99.90;;;;;;4411242;32;20085;-67
2021/10/02 10:17:56;;;;;;;0.30;0.30;;;17.30;99.90;;;;;;4409855;32;20450;-67
2021/10/02 10:20:41;;;;;;;0.40;0.40;;;17.30;99.90;;;;;;4412121;32;20437;-67
2021/10/02 10:23:09;;;;;;;0.60;0.60;;;17.40;99.90;;;;;;4398522;32;20073;-67
2021/10/02 10:25:47;;;;;;;0.37;0.37;;;17.50;99.90;;;;;;4398285;32;20089;-67
2021/10/02 10:28:17;;;;;;;0.40;0.40;;;17.50;99.90;;;;;;4411836;32;20495;-67
2021/10/02 10:30:46;;;;;;;0.40;0.40;;;17.50;99.90;;;;;;4412011;32;20077;-66
2021/10/02 10:33:14;;;;;;;0.40;0.40;;;17.60;99.90;;;;;;4411562;32;20082;-66
2021/10/02 10:35:44;;;;;;;0.40;0.40;;;17.60;99.90;;;;;;4411192;32;20065;-66
2021/10/02 10:38:13;;;;;;;0.30;0.30;;;17.70;99.90;;;;;;4411949;32;20074;-66
2021/10/02 10:40:39;;;;;;;5.00;1.00;;;17.70;99.90;;;;;;4411449;32;20082;-66
2021/10/02 10:43:05;;;;;;;0.40;0.40;;;17.70;99.90;;;;;;4412043;32;20061;-66
2021/10/02 10:45:34;;;;;;;0.43;0.43;;;17.70;99.90;;;;;;4410703;32;20057;-67
2021/10/02 10:48:00;;;;;;;0.40;0.40;;;17.70;99.90;;;;;;4412406;32;20102;-67
2021/10/02 10:50:26;;;;;;;0.40;0.40;;;17.80;99.90;;;;;;4411586;32;20077;-67
2021/10/02 10:52:52;;;;;;;0.43;0.43;;;17.80;99.90;;;;;;4410807;32;20070;-67
2021/10/02 10:55:21;;;;;;;0.47;0.47;;;18.00;99.90;;;;;;4410838;32;20571;-67
2021/10/02 10:57:49;;;;;;;0.30;0.30;;;18.00;99.90;;;;;;4412277;32;20303;-67
2021/10/02 11:00:19;;;;;;;0.40;0.40;;;18.00;99.90;;;;;;4411713;32;20138;-67
2021/10/02 11:02:47;;;;;;;0.80;0.43;;;18.10;99.90;;;;;;4410324;32;20132;-66
2021/10/02 11:05:37;;;;;;;0.62;0.62;;;18.30;99.90;;;;;;4410747;32;20078;-68
2021/10/02 11:08:04;;;;;;;0.40;0.40;;;18.50;99.90;;;;;;4400278;32;20070;-66
2021/10/02 11:10:51;;;;;;;0.30;0.30;;;18.60;99.90;;;;;;4411514;32;20136;-66
2021/10/02 11:13:27;;;;;;;0.30;0.30;;;18.70;99.90;;;;;;4400103;32;20062;-67
2021/10/02 11:15:55;;;;;;;0.43;0.43;;;18.80;99.90;;;;;;4399022;32;20428;-67
2021/10/02 11:18:43;;;;;;;0.32;0.32;;;18.90;99.90;;;;;;4411796;32;20081;-67
2021/10/02 11:21:10;;;;;;;0.20;0.20;;;19.20;99.90;;;;;;4386749;32;20066;-67
2021/10/02 11:24:02;;;;;;;1.67;0.52;;;19.50;99.90;;;;;;4396486;32;20070;-67
2021/10/02 11:26:48;;;;;;;0.90;0.88;;;19.70;99.90;;;;;;4399694;32;20116;-67
2021/10/02 11:29:15;;;;;;;0.30;0.30;;;19.90;99.90;;;;;;4410358;32;20061;-67
2021/10/02 11:31:41;;;;;;;0.90;0.55;;;20.00;99.90;;;;;;4398345;32;20066;-67
2021/10/02 11:34:16;;;;;;;0.20;0.20;;;20.20;99.90;;;;;;4397746;32;20070;-67
2021/10/02 11:36:43;;;;;;;0.28;0.28;;;20.20;99.90;;;;;;4398125;32;20570;-66
2021/10/02 11:39:11;;;;;;;0.30;0.30;;;20.40;99.90;;;;;;4396682;32;20061;-66
2021/10/02 11:41:39;;;;;;;0.28;0.28;;;20.70;99.90;;;;;;4410931;32;20081;-66
2021/10/02 11:44:05;;;;;;;0.32;0.32;;;21.00;99.90;;;;;;4411159;32;20089;-67
2021/10/02 11:46:31;;;;;;;0.30;0.30;;;21.10;99.90;;;;;;4411230;32;20133;-68
2021/10/02 11:49:14;;;;;;;0.80;0.45;;;21.40;99.90;;;;;;4397049;32;20054;-68
2021/10/02 11:51:40;;;;;;;0.30;0.30;;;21.30;99.90;;;;;;4396997;32;20066;-67
2021/10/02 11:54:12;;;;;;;0.30;0.30;;;21.40;99.90;;;;;;4411173;32;20081;-67
2021/10/02 11:56:39;;;;;;;0.30;0.30;;;21.50;99.90;;;;;;4397269;32;20502;-67
2021/10/02 11:59:05;;;;;;;0.30;0.30;;;21.80;99.90;;;;;;4400732;32;20205;-67
2021/10/02 12:01:33;;;;;;;0.20;0.20;;;21.90;99.90;;;;;;4413360;32;20120;-67
2021/10/02 12:04:01;;;;;;;0.47;0.47;;;22.30;99.90;;;;;;4414201;32;20054;-67
2021/10/02 12:06:27;;;;;;;0.65;0.22;;;22.60;99.90;;;;;;4412909;32;20131;-67
2021/10/02 12:08:53;;;;;;;0.20;0.20;;;22.60;99.80;;;;;;4400160;32;20066;-67
2021/10/02 12:11:19;;;;;;;0.20;0.20;;;22.70;99.30;;;;;;4398944;32;20065;-67
2021/10/02 12:13:49;;;;;;;0.30;0.30;;;22.90;99.10;;;;;;4399049;32;20413;-67
2021/10/02 12:16:20;;;;;;;0.32;0.30;;;22.90;99.30;;;;;;4413830;32;20086;-67
2021/10/02 12:18:51;;;;;;;0.20;0.20;;;23.00;98.30;;;;;;4412283;32;20085;-67
2021/10/02 12:21:27;;;;;;;0.10;0.10;;;23.00;98.70;;;;;;4398320;32;20082;-68
2021/10/02 12:23:56;;;;;;;0.20;0.20;;;23.50;98.50;;;;;;4413554;32;20128;-68
2021/10/02 12:26:23;;;;;;;0.20;0.20;;;24.00;96.80;;;;;;4400289;32;20189;-67
2021/10/02 12:28:56;;;;;;;0.17;0.17;;;23.50;96.80;;;;;;4398563;32;20077;-66
2021/10/02 12:31:21;;;;;;;1.02;0.30;;;23.90;96.70;;;;;;4413654;32;20085;-66
2021/10/02 12:33:46;;;;;;;0.10;0.10;;;23.90;96.10;;;;;;4411592;32;20077;-66
2021/10/02 12:36:12;;;;;;;0.25;0.25;;;24.20;96.30;;;;;;4413868;32;20083;-66
2021/10/02 12:38:40;;;;;;;0.20;0.20;;;24.10;95.30;;;;;;4411782;32;20073;-66
2021/10/02 12:41:05;;;;;;;0.45;0.45;;;24.10;95.70;;;;;;4398989;32;20124;-66
2021/10/02 12:43:32;;;;;;;0.17;0.17;;;24.10;95.80;;;;;;4398665;32;20462;-67
2021/10/02 12:45:58;;;;;;;0.25;0.20;;;23.80;96.20;;;;;;4399392;32;20078;-66
2021/10/02 12:48:24;;;;;;;0.10;0.10;;;23.70;95.70;;;;;;4411874;32;20523;-66
2021/10/02 12:50:49;;;;;;;0.30;0.30;;;23.40;96.20;;;;;;4411563;32;20077;-66
2021/10/02 12:53:19;;;;;;;0.20;0.20;;;23.30;97.10;;;;;;4412468;32;20146;-66
2021/10/02 12:55:45;;;;;;;0.20;0.20;;;23.00;97.50;;;;;;4405668;32;20128;-66
2021/10/02 12:58:13;;;;;;;0.10;0.10;;;22.90;98.30;;;;;;4413011;32;20135;-67
2021/10/02 13:00:39;;;;;;;0.40;0.40;;;22.90;98.70;;;;;;4399080;32;20129;-66
2021/10/02 13:03:07;;;;;;;0.20;0.20;;;22.50;98.90;;;;;;4412284;32;20081;-66
2021/10/02 13:05:35;;;;;;;0.30;0.30;;;22.00;99.60;;;;;;4413036;32;20536;-66
2021/10/02 13:08:03;;;;;;;0.22;0.22;;;21.90;99.80;;;;;;4410460;32;20069;-66
2021/10/02 13:10:33;;;;;;;0.30;0.30;;;21.90;99.90;;;;;;4412030;32;20515;-66
2021/10/02 13:13:04;;;;;;;1.45;0.62;;;21.80;99.90;;;;;;4411632;32;20074;-66
2021/10/02 13:15:40;;;;;;;0.30;0.30;;;21.80;99.80;;;;;;4411575;32;20078;-66
2021/10/02 13:18:11;;;;;;;0.32;0.32;;;21.80;99.90;;;;;;4413506;32;20412;-67
2021/10/02 13:20:40;;;;;;;0.40;0.40;;;21.60;99.90;;;;;;4411222;32;20085;-67
2021/10/02 13:23:16;;;;;;;0.43;0.43;;;21.40;99.90;;;;;;4412449;32;20065;-67
2021/10/02 13:25:52;;;;;;;0.30;0.30;;;21.30;99.90;;;;;;4413398;32;20455;-67
2021/10/02 13:28:26;;;;;;;0.22;0.22;;;21.40;99.90;;;;;;4412854;32;20117;-66
2021/10/02 13:30:54;;;;;;;0.30;0.30;;;21.20;99.90;;;;;;4411120;32;20086;-66
2021/10/02 13:33:21;;;;;;;0.40;0.40;;;21.20;99.90;;;;;;4411347;32;20074;-66
2021/10/02 13:35:50;;;;;;;0.68;0.68;;;21.10;99.90;;;;;;4412916;32;20066;-66
2021/10/02 13:38:16;;;;;;;0.32;0.32;;;21.00;99.90;;;;;;4410824;32;20112;-66